KAQW/AQW METAR and TAF weather

Enter ICAO airport designator
Station Type Date Time Source
KAQW METAR 2019/06/18 11:52 UTC NOAA

KAQW 181152Z AUTO 00000KT 10SM CLR 15/14 A2999 RMK AO2 SLP155 T01500139 10150 20122 53003


Station Type Date Time Source
KAQW Decoded METAR 2019/06/18 11:52 UTC NOAA

N ADAMS HARRIMAN-AND-WEST, MA, United States (KAQW) 42-42N 073-10W 201M
Jun 18, 2019 - 07:52 AM EDT / 2019.06.18 1152 UTC
Wind: Calm:0
Visibility: 10 mile(s):0
Sky conditions: clear
Temperature: 59.0 F (15.0 C)
Dew Point: 57.0 F (13.9 C)
Relative Humidity: 93%
Pressure (altimeter): 29.99 in. Hg (1015 hPa)
Pressure tendency: 0.01 inches (0.3 hPa) higher than three hours ago
ob: KAQW 181152Z AUTO 00000KT 10SM CLR 15/14 A2999 RMK AO2 SLP155 T01500139 10150 20122 53003
cycle: 12

Station Type Date Time Source
KAQW TAF UTC NOAA

Error!

Example: see airport list